sensor_id;sensor_type;location;lat;lon;timestamp;P1;durP1;ratioP1;P2;durP2;ratioP2
36185;SDS011;22228;53.222;7.446;2023-02-28T00:00:55;6.63;;;4.20;;
36185;SDS011;22228;53.222;7.446;2023-02-28T00:03:16;4.37;;;3.53;;
36185;SDS011;22228;53.222;7.446;2023-02-28T00:05:36;4.53;;;4.13;;
36185;SDS011;22228;53.222;7.446;2023-02-28T00:07:58;8.17;;;4.80;;
36185;SDS011;22228;53.222;7.446;2023-02-28T00:10:19;7.77;;;4.63;;
36185;SDS011;22228;53.222;7.446;2023-02-28T00:12:41;5.27;;;3.80;;
36185;SDS011;22228;53.222;7.446;2023-02-28T00:15:02;5.37;;;3.67;;
36185;SDS011;22228;53.222;7.446;2023-02-28T00:17:26;4.60;;;3.47;;
36185;SDS011;22228;53.222;7.446;2023-02-28T00:19:47;4.20;;;3.33;;
36185;SDS011;22228;53.222;7.446;2023-02-28T00:22:08;4.73;;;2.97;;
36185;SDS011;22228;53.222;7.446;2023-02-28T00:24:30;5.13;;;3.00;;
36185;SDS011;22228;53.222;7.446;2023-02-28T00:26:50;4.27;;;3.70;;
36185;SDS011;22228;53.222;7.446;2023-02-28T00:29:11;4.07;;;3.63;;
36185;SDS011;22228;53.222;7.446;2023-02-28T00:31:31;6.00;;;3.67;;
36185;SDS011;22228;53.222;7.446;2023-02-28T00:33:52;4.67;;;3.50;;
36185;SDS011;22228;53.222;7.446;2023-02-28T00:36:13;4.60;;;3.30;;
36185;SDS011;22228;53.222;7.446;2023-02-28T00:38:33;4.10;;;3.13;;
36185;SDS011;22228;53.222;7.446;2023-02-28T00:40:56;7.03;;;3.43;;
36185;SDS011;22228;53.222;7.446;2023-02-28T00:43:17;4.50;;;3.17;;
36185;SDS011;22228;53.222;7.446;2023-02-28T00:45:37;3.93;;;2.87;;
36185;SDS011;22228;53.222;7.446;2023-02-28T00:47:58;4.30;;;3.50;;
36185;SDS011;22228;53.222;7.446;2023-02-28T00:50:19;4.77;;;3.40;;
36185;SDS011;22228;53.222;7.446;2023-02-28T00:52:40;6.97;;;2.93;;
36185;SDS011;22228;53.222;7.446;2023-02-28T00:55:00;5.13;;;2.70;;
36185;SDS011;22228;53.222;7.446;2023-02-28T00:57:22;3.90;;;3.00;;
36185;SDS011;22228;53.222;7.446;2023-02-28T00:59:42;4.03;;;3.07;;
36185;SDS011;22228;53.222;7.446;2023-02-28T01:02:03;3.10;;;2.80;;
36185;SDS011;22228;53.222;7.446;2023-02-28T01:04:24;3.40;;;2.60;;
36185;SDS011;22228;53.222;7.446;2023-02-28T01:06:45;5.40;;;3.13;;
36185;SDS011;22228;53.222;7.446;2023-02-28T01:09:06;3.27;;;2.43;;
36185;SDS011;22228;53.222;7.446;2023-02-28T01:11:27;3.20;;;3.00;;
36185;SDS011;22228;53.222;7.446;2023-02-28T01:13:49;3.10;;;2.87;;
36185;SDS011;22228;53.222;7.446;2023-02-28T04:01:35;10.83;;;8.10;;
36185;SDS011;22228;53.222;7.446;2023-02-28T04:04:00;10.63;;;7.80;;
36185;SDS011;22228;53.222;7.446;2023-02-28T04:06:22;12.90;;;8.10;;
36185;SDS011;22228;53.222;7.446;2023-02-28T04:08:43;8.90;;;8.00;;
36185;SDS011;22228;53.222;7.446;2023-02-28T04:11:16;11.70;;;8.90;;
36185;SDS011;22228;53.222;7.446;2023-02-28T04:13:40;11.20;;;8.43;;
36185;SDS011;22228;53.222;7.446;2023-02-28T04:16:01;10.80;;;8.40;;
36185;SDS011;22228;53.222;7.446;2023-02-28T04:18:32;10.17;;;8.13;;
36185;SDS011;22228;53.222;7.446;2023-02-28T04:20:52;11.33;;;9.20;;
36185;SDS011;22228;53.222;7.446;2023-02-28T04:23:13;11.53;;;8.43;;
36185;SDS011;22228;53.222;7.446;2023-02-28T04:25:33;10.27;;;8.40;;
36185;SDS011;22228;53.222;7.446;2023-02-28T04:27:54;10.57;;;8.73;;
36185;SDS011;22228;53.222;7.446;2023-02-28T04:30:15;11.93;;;8.07;;
36185;SDS011;22228;53.222;7.446;2023-02-28T04:32:35;10.03;;;8.30;;
36185;SDS011;22228;53.222;7.446;2023-02-28T04:34:57;11.90;;;9.07;;
36185;SDS011;22228;53.222;7.446;2023-02-28T04:37:18;10.13;;;8.70;;
36185;SDS011;22228;53.222;7.446;2023-02-28T04:39:38;14.17;;;9.03;;
36185;SDS011;22228;53.222;7.446;2023-02-28T04:41:59;10.10;;;8.77;;
36185;SDS011;22228;53.222;7.446;2023-02-28T04:44:20;10.00;;;8.70;;
36185;SDS011;22228;53.222;7.446;2023-02-28T04:46:41;13.13;;;9.13;;
36185;SDS011;22228;53.222;7.446;2023-02-28T04:49:02;10.27;;;9.10;;
36185;SDS011;22228;53.222;7.446;2023-02-28T04:51:24;11.73;;;9.07;;
36185;SDS011;22228;53.222;7.446;2023-02-28T04:53:45;13.67;;;9.30;;
36185;SDS011;22228;53.222;7.446;2023-02-28T04:56:06;11.93;;;9.57;;
36185;SDS011;22228;53.222;7.446;2023-02-28T04:58:28;12.33;;;10.20;;
36185;SDS011;22228;53.222;7.446;2023-02-28T05:00:48;13.93;;;9.53;;
36185;SDS011;22228;53.222;7.446;2023-02-28T05:03:09;12.27;;;10.17;;
36185;SDS011;22228;53.222;7.446;2023-02-28T05:05:29;11.10;;;9.87;;
36185;SDS011;22228;53.222;7.446;2023-02-28T05:07:51;13.80;;;10.63;;
36185;SDS011;22228;53.222;7.446;2023-02-28T05:10:14;15.47;;;11.07;;
36185;SDS011;22228;53.222;7.446;2023-02-28T05:12:34;13.87;;;10.50;;
36185;SDS011;22228;53.222;7.446;2023-02-28T05:14:55;14.40;;;10.83;;
36185;SDS011;22228;53.222;7.446;2023-02-28T05:17:15;12.93;;;10.30;;
36185;SDS011;22228;53.222;7.446;2023-02-28T05:19:35;14.33;;;11.00;;
36185;SDS011;22228;53.222;7.446;2023-02-28T05:21:56;13.10;;;10.63;;
36185;SDS011;22228;53.222;7.446;2023-02-28T05:24:18;16.90;;;10.70;;
36185;SDS011;22228;53.222;7.446;2023-02-28T05:26:41;14.30;;;10.80;;
36185;SDS011;22228;53.222;7.446;2023-02-28T05:29:02;16.33;;;10.87;;
36185;SDS011;22228;53.222;7.446;2023-02-28T05:31:23;15.47;;;11.23;;
36185;SDS011;22228;53.222;7.446;2023-02-28T05:33:43;15.80;;;11.30;;
36185;SDS011;22228;53.222;7.446;2023-02-28T05:36:04;15.73;;;11.20;;
36185;SDS011;22228;53.222;7.446;2023-02-28T05:38:25;14.40;;;11.00;;
36185;SDS011;22228;53.222;7.446;2023-02-28T05:40:47;15.87;;;11.87;;
36185;SDS011;22228;53.222;7.446;2023-02-28T05:43:09;16.03;;;11.37;;
36185;SDS011;22228;53.222;7.446;2023-02-28T05:45:31;16.50;;;12.50;;
36185;SDS011;22228;53.222;7.446;2023-02-28T05:47:52;17.97;;;12.40;;
36185;SDS011;22228;53.222;7.446;2023-02-28T05:50:13;18.77;;;13.57;;
36185;SDS011;22228;53.222;7.446;2023-02-28T05:52:34;18.93;;;13.97;;
36185;SDS011;22228;53.222;7.446;2023-02-28T05:54:54;16.47;;;12.43;;
36185;SDS011;22228;53.222;7.446;2023-02-28T05:57:16;15.87;;;11.90;;
36185;SDS011;22228;53.222;7.446;2023-02-28T05:59:37;17.03;;;12.67;;
36185;SDS011;22228;53.222;7.446;2023-02-28T06:01:58;13.43;;;11.17;;
36185;SDS011;22228;53.222;7.446;2023-02-28T06:04:19;17.97;;;13.23;;
36185;SDS011;22228;53.222;7.446;2023-02-28T06:06:40;19.23;;;13.43;;
36185;SDS011;22228;53.222;7.446;2023-02-28T06:09:01;18.30;;;12.70;;
36185;SDS011;22228;53.222;7.446;2023-02-28T06:11:22;16.80;;;12.53;;
36185;SDS011;22228;53.222;7.446;2023-02-28T06:13:47;17.97;;;13.80;;
36185;SDS011;22228;53.222;7.446;2023-02-28T06:16:07;20.83;;;13.90;;
36185;SDS011;22228;53.222;7.446;2023-02-28T06:18:28;17.33;;;12.93;;
36185;SDS011;22228;53.222;7.446;2023-02-28T06:20:52;20.00;;;13.30;;
36185;SDS011;22228;53.222;7.446;2023-02-28T06:23:12;19.23;;;14.07;;
36185;SDS011;22228;53.222;7.446;2023-02-28T06:25:33;19.17;;;14.10;;
36185;SDS011;22228;53.222;7.446;2023-02-28T06:27:54;17.70;;;13.30;;
36185;SDS011;22228;53.222;7.446;2023-02-28T06:30:16;17.33;;;13.30;;
36185;SDS011;22228;53.222;7.446;2023-02-28T06:32:37;20.77;;;14.90;;
36185;SDS011;22228;53.222;7.446;2023-02-28T06:34:57;20.93;;;16.07;;
36185;SDS011;22228;53.222;7.446;2023-02-28T06:37:18;16.47;;;14.30;;
36185;SDS011;22228;53.222;7.446;2023-02-28T06:39:39;20.63;;;15.93;;
36185;SDS011;22228;53.222;7.446;2023-02-28T06:41:59;20.13;;;14.10;;
36185;SDS011;22228;53.222;7.446;2023-02-28T06:44:20;16.87;;;14.10;;
36185;SDS011;22228;53.222;7.446;2023-02-28T06:46:43;15.40;;;12.40;;
36185;SDS011;22228;53.222;7.446;2023-02-28T06:49:04;17.53;;;12.80;;
36185;SDS011;22228;53.222;7.446;2023-02-28T06:51:27;13.73;;;11.37;;
36185;SDS011;22228;53.222;7.446;2023-02-28T06:53:48;12.40;;;11.10;;
36185;SDS011;22228;53.222;7.446;2023-02-28T06:56:09;13.30;;;10.80;;
36185;SDS011;22228;53.222;7.446;2023-02-28T06:58:31;14.43;;;11.17;;
36185;SDS011;22228;53.222;7.446;2023-02-28T07:00:51;12.43;;;11.03;;
36185;SDS011;22228;53.222;7.446;2023-02-28T07:03:14;13.40;;;10.90;;
36185;SDS011;22228;53.222;7.446;2023-02-28T07:05:34;11.40;;;10.20;;
36185;SDS011;22228;53.222;7.446;2023-02-28T07:07:55;11.50;;;10.30;;
36185;SDS011;22228;53.222;7.446;2023-02-28T07:10:16;16.63;;;11.47;;
36185;SDS011;22228;53.222;7.446;2023-02-28T07:12:36;13.47;;;10.47;;
36185;SDS011;22228;53.222;7.446;2023-02-28T07:14:57;11.17;;;9.93;;
36185;SDS011;22228;53.222;7.446;2023-02-28T07:17:18;13.07;;;10.20;;
36185;SDS011;22228;53.222;7.446;2023-02-28T07:19:40;14.47;;;11.70;;
36185;SDS011;22228;53.222;7.446;2023-02-28T07:22:00;16.40;;;12.60;;
36185;SDS011;22228;53.222;7.446;2023-02-28T07:24:21;14.70;;;12.17;;
36185;SDS011;22228;53.222;7.446;2023-02-28T07:26:47;17.67;;;12.80;;
36185;SDS011;22228;53.222;7.446;2023-02-28T07:29:07;16.23;;;13.30;;
36185;SDS011;22228;53.222;7.446;2023-02-28T07:31:28;21.07;;;14.83;;
36185;SDS011;22228;53.222;7.446;2023-02-28T07:33:48;18.57;;;14.67;;
36185;SDS011;22228;53.222;7.446;2023-02-28T07:36:11;17.93;;;14.40;;
36185;SDS011;22228;53.222;7.446;2023-02-28T07:38:33;21.40;;;15.73;;
36185;SDS011;22228;53.222;7.446;2023-02-28T07:40:54;20.57;;;16.87;;
36185;SDS011;22228;53.222;7.446;2023-02-28T07:43:15;26.27;;;18.93;;
36185;SDS011;22228;53.222;7.446;2023-02-28T07:45:36;22.37;;;16.97;;
36185;SDS011;22228;53.222;7.446;2023-02-28T07:47:56;22.33;;;16.63;;
36185;SDS011;22228;53.222;7.446;2023-02-28T07:50:17;19.83;;;15.67;;
36185;SDS011;22228;53.222;7.446;2023-02-28T07:52:39;19.10;;;15.37;;
36185;SDS011;22228;53.222;7.446;2023-02-28T07:55:00;20.07;;;15.60;;
36185;SDS011;22228;53.222;7.446;2023-02-28T07:57:20;25.03;;;16.73;;
36185;SDS011;22228;53.222;7.446;2023-02-28T07:59:41;25.27;;;17.77;;
36185;SDS011;22228;53.222;7.446;2023-02-28T08:02:02;24.00;;;17.60;;
36185;SDS011;22228;53.222;7.446;2023-02-28T08:04:22;26.77;;;17.87;;
36185;SDS011;22228;53.222;7.446;2023-02-28T08:06:43;30.40;;;18.63;;
36185;SDS011;22228;53.222;7.446;2023-02-28T08:09:05;22.30;;;17.03;;
36185;SDS011;22228;53.222;7.446;2023-02-28T08:11:26;23.73;;;17.93;;
36185;SDS011;22228;53.222;7.446;2023-02-28T08:13:46;23.17;;;16.10;;
36185;SDS011;22228;53.222;7.446;2023-02-28T08:16:07;21.43;;;16.23;;
36185;SDS011;22228;53.222;7.446;2023-02-28T08:18:27;22.23;;;16.60;;
36185;SDS011;22228;53.222;7.446;2023-02-28T08:20:48;26.83;;;17.43;;
36185;SDS011;22228;53.222;7.446;2023-02-28T08:23:08;24.87;;;17.33;;
36185;SDS011;22228;53.222;7.446;2023-02-28T08:25:30;30.10;;;18.23;;
36185;SDS011;22228;53.222;7.446;2023-02-28T08:27:51;26.27;;;20.70;;
36185;SDS011;22228;53.222;7.446;2023-02-28T08:30:12;24.83;;;18.60;;
36185;SDS011;22228;53.222;7.446;2023-02-28T08:32:33;26.53;;;18.80;;
36185;SDS011;22228;53.222;7.446;2023-02-28T08:34:54;27.47;;;19.07;;
36185;SDS011;22228;53.222;7.446;2023-02-28T08:37:14;31.17;;;19.83;;
36185;SDS011;22228;53.222;7.446;2023-02-28T08:39:35;27.07;;;19.73;;
36185;SDS011;22228;53.222;7.446;2023-02-28T08:41:56;31.73;;;21.07;;
36185;SDS011;22228;53.222;7.446;2023-02-28T08:44:17;33.00;;;19.80;;
36185;SDS011;22228;53.222;7.446;2023-02-28T08:46:37;29.27;;;20.27;;
36185;SDS011;22228;53.222;7.446;2023-02-28T08:48:58;25.23;;;19.30;;
36185;SDS011;22228;53.222;7.446;2023-02-28T08:51:20;27.87;;;20.07;;
36185;SDS011;22228;53.222;7.446;2023-02-28T08:53:45;26.97;;;20.23;;
36185;SDS011;22228;53.222;7.446;2023-02-28T08:56:08;26.03;;;19.13;;
36185;SDS011;22228;53.222;7.446;2023-02-28T08:58:31;27.27;;;18.57;;
36185;SDS011;22228;53.222;7.446;2023-02-28T09:00:52;23.20;;;18.17;;
36185;SDS011;22228;53.222;7.446;2023-02-28T09:03:13;23.93;;;18.50;;
36185;SDS011;22228;53.222;7.446;2023-02-28T09:05:33;27.60;;;18.93;;
36185;SDS011;22228;53.222;7.446;2023-02-28T09:07:54;27.10;;;17.80;;
36185;SDS011;22228;53.222;7.446;2023-02-28T09:10:15;27.33;;;18.90;;
36185;SDS011;22228;53.222;7.446;2023-02-28T09:12:35;28.30;;;18.10;;
36185;SDS011;22228;53.222;7.446;2023-02-28T09:14:57;19.00;;;15.37;;
36185;SDS011;22228;53.222;7.446;2023-02-28T09:17:18;20.73;;;14.33;;
36185;SDS011;22228;53.222;7.446;2023-02-28T09:19:39;16.93;;;13.30;;
36185;SDS011;22228;53.222;7.446;2023-02-28T09:22:00;19.43;;;13.37;;
36185;SDS011;22228;53.222;7.446;2023-02-28T09:24:20;20.50;;;13.97;;
36185;SDS011;22228;53.222;7.446;2023-02-28T09:26:41;18.87;;;13.83;;
36185;SDS011;22228;53.222;7.446;2023-02-28T09:29:01;17.30;;;14.80;;
36185;SDS011;22228;53.222;7.446;2023-02-28T09:31:24;18.40;;;14.33;;
36185;SDS011;22228;53.222;7.446;2023-02-28T09:33:46;19.43;;;14.43;;
36185;SDS011;22228;53.222;7.446;2023-02-28T09:36:07;18.20;;;13.77;;
36185;SDS011;22228;53.222;7.446;2023-02-28T09:38:27;18.80;;;12.00;;
36185;SDS011;22228;53.222;7.446;2023-02-28T09:40:49;18.47;;;12.37;;
36185;SDS011;22228;53.222;7.446;2023-02-28T09:43:11;15.63;;;11.90;;
36185;SDS011;22228;53.222;7.446;2023-02-28T09:45:37;17.00;;;12.70;;
36185;SDS011;22228;53.222;7.446;2023-02-28T09:48:03;14.13;;;11.37;;
36185;SDS011;22228;53.222;7.446;2023-02-28T09:50:30;20.03;;;14.17;;
36185;SDS011;22228;53.222;7.446;2023-02-28T09:52:54;16.07;;;11.20;;
36185;SDS011;22228;53.222;7.446;2023-02-28T09:55:19;13.77;;;10.80;;
36185;SDS011;22228;53.222;7.446;2023-02-28T09:57:42;13.97;;;11.00;;
36185;SDS011;22228;53.222;7.446;2023-02-28T10:00:05;14.30;;;10.97;;
36185;SDS011;22228;53.222;7.446;2023-02-28T10:02:41;12.73;;;9.80;;
36185;SDS011;22228;53.222;7.446;2023-02-28T10:05:12;11.33;;;10.13;;
36185;SDS011;22228;53.222;7.446;2023-02-28T10:07:37;15.53;;;10.27;;
36185;SDS011;22228;53.222;7.446;2023-02-28T10:10:16;12.30;;;9.83;;
36185;SDS011;22228;53.222;7.446;2023-02-28T10:12:41;13.53;;;11.10;;
36185;SDS011;22228;53.222;7.446;2023-02-28T10:15:05;13.10;;;11.53;;
36185;SDS011;22228;53.222;7.446;2023-02-28T10:17:36;11.50;;;10.13;;
36185;SDS011;22228;53.222;7.446;2023-02-28T10:20:00;15.00;;;11.77;;
36185;SDS011;22228;53.222;7.446;2023-02-28T10:22:29;11.43;;;10.23;;
36185;SDS011;22228;53.222;7.446;2023-02-28T10:24:55;13.07;;;10.53;;
36185;SDS011;22228;53.222;7.446;2023-02-28T10:27:19;11.90;;;10.13;;
36185;SDS011;22228;53.222;7.446;2023-02-28T10:29:42;10.33;;;9.30;;
36185;SDS011;22228;53.222;7.446;2023-02-28T10:32:04;10.23;;;9.17;;
36185;SDS011;22228;53.222;7.446;2023-02-28T10:34:24;9.33;;;8.50;;
36185;SDS011;22228;53.222;7.446;2023-02-28T10:36:45;8.60;;;7.80;;
36185;SDS011;22228;53.222;7.446;2023-02-28T10:41:59;10.57;;;8.47;;
36185;SDS011;22228;53.222;7.446;2023-02-28T10:44:20;9.37;;;8.47;;
36185;SDS011;22228;53.222;7.446;2023-02-28T10:46:41;9.33;;;8.43;;
36185;SDS011;22228;53.222;7.446;2023-02-28T10:49:03;8.43;;;7.63;;
36185;SDS011;22228;53.222;7.446;2023-02-28T10:51:26;8.70;;;6.93;;
36185;SDS011;22228;53.222;7.446;2023-02-28T10:53:55;8.13;;;6.50;;
36185;SDS011;22228;53.222;7.446;2023-02-28T10:56:18;6.70;;;5.23;;
36185;SDS011;22228;53.222;7.446;2023-02-28T10:58:46;6.63;;;5.60;;
36185;SDS011;22228;53.222;7.446;2023-02-28T11:01:12;7.37;;;6.43;;
36185;SDS011;22228;53.222;7.446;2023-02-28T11:03:34;6.53;;;4.87;;
36185;SDS011;22228;53.222;7.446;2023-02-28T11:05:55;5.17;;;4.70;;
36185;SDS011;22228;53.222;7.446;2023-02-28T11:08:17;5.03;;;4.10;;
36185;SDS011;22228;53.222;7.446;2023-02-28T11:10:38;4.47;;;4.07;;
36185;SDS011;22228;53.222;7.446;2023-02-28T11:13:00;5.27;;;4.40;;
36185;SDS011;22228;53.222;7.446;2023-02-28T11:15:23;5.87;;;4.70;;
36185;SDS011;22228;53.222;7.446;2023-02-28T11:17:49;4.20;;;3.80;;
36185;SDS011;22228;53.222;7.446;2023-02-28T11:20:18;4.03;;;3.70;;
36185;SDS011;22228;53.222;7.446;2023-02-28T11:22:43;4.20;;;3.90;;
36185;SDS011;22228;53.222;7.446;2023-02-28T11:25:06;4.93;;;3.97;;
36185;SDS011;22228;53.222;7.446;2023-02-28T11:30:17;4.83;;;4.23;;
36185;SDS011;22228;53.222;7.446;2023-02-28T11:32:47;2.77;;;2.57;;
36185;SDS011;22228;53.222;7.446;2023-02-28T11:35:14;2.20;;;2.03;;
36185;SDS011;22228;53.222;7.446;2023-02-28T11:37:40;3.83;;;2.47;;
36185;SDS011;22228;53.222;7.446;2023-02-28T11:40:01;3.27;;;2.80;;
36185;SDS011;22228;53.222;7.446;2023-02-28T11:42:31;3.93;;;3.50;;
36185;SDS011;22228;53.222;7.446;2023-02-28T11:45:08;4.27;;;3.70;;
36185;SDS011;22228;53.222;7.446;2023-02-28T11:47:42;5.73;;;3.50;;
36185;SDS011;22228;53.222;7.446;2023-02-28T11:50:11;4.03;;;3.63;;
36185;SDS011;22228;53.222;7.446;2023-02-28T11:52:39;3.23;;;3.00;;
36185;SDS011;22228;53.222;7.446;2023-02-28T11:55:09;8.93;;;7.07;;
36185;SDS011;22228;53.222;7.446;2023-02-28T11:57:38;12.50;;;9.20;;
36185;SDS011;22228;53.222;7.446;2023-02-28T12:00:17;8.67;;;4.90;;
36185;SDS011;22228;53.222;7.446;2023-02-28T12:02:52;4.63;;;3.90;;
36185;SDS011;22228;53.222;7.446;2023-02-28T12:05:23;6.40;;;4.77;;
36185;SDS011;22228;53.222;7.446;2023-02-28T12:07:50;5.63;;;4.43;;
36185;SDS011;22228;53.222;7.446;2023-02-28T12:10:21;4.93;;;3.63;;
36185;SDS011;22228;53.222;7.446;2023-02-28T12:12:45;5.23;;;4.87;;
36185;SDS011;22228;53.222;7.446;2023-02-28T12:15:17;5.13;;;4.17;;
36185;SDS011;22228;53.222;7.446;2023-02-28T12:18:05;6.17;;;4.17;;
36185;SDS011;22228;53.222;7.446;2023-02-28T12:20:42;5.07;;;3.50;;
36185;SDS011;22228;53.222;7.446;2023-02-28T12:23:14;4.87;;;4.47;;
36185;SDS011;22228;53.222;7.446;2023-02-28T12:25:48;4.47;;;3.80;;
36185;SDS011;22228;53.222;7.446;2023-02-28T12:28:20;3.67;;;3.37;;
36185;SDS011;22228;53.222;7.446;2023-02-28T12:30:47;3.53;;;3.23;;
36185;SDS011;22228;53.222;7.446;2023-02-28T12:33:14;4.43;;;3.70;;
36185;SDS011;22228;53.222;7.446;2023-02-28T12:35:37;6.30;;;3.93;;
36185;SDS011;22228;53.222;7.446;2023-02-28T12:38:05;5.77;;;4.43;;
36185;SDS011;22228;53.222;7.446;2023-02-28T12:40:32;4.50;;;4.07;;
36185;SDS011;22228;53.222;7.446;2023-02-28T12:43:02;4.30;;;4.00;;
36185;SDS011;22228;53.222;7.446;2023-02-28T12:45:27;5.83;;;3.97;;
36185;SDS011;22228;53.222;7.446;2023-02-28T12:48:00;5.13;;;3.83;;
36185;SDS011;22228;53.222;7.446;2023-02-28T12:50:25;3.60;;;3.30;;
36185;SDS011;22228;53.222;7.446;2023-02-28T12:52:51;3.87;;;3.67;;
36185;SDS011;22228;53.222;7.446;2023-02-28T12:55:18;4.10;;;3.47;;
36185;SDS011;22228;53.222;7.446;2023-02-28T12:57:45;3.97;;;3.53;;
36185;SDS011;22228;53.222;7.446;2023-02-28T13:00:11;6.63;;;6.03;;
36185;SDS011;22228;53.222;7.446;2023-02-28T13:05:41;5.00;;;4.50;;
36185;SDS011;22228;53.222;7.446;2023-02-28T13:08:33;5.07;;;3.57;;
36185;SDS011;22228;53.222;7.446;2023-02-28T13:11:23;3.47;;;3.07;;
36185;SDS011;22228;53.222;7.446;2023-02-28T13:13:46;3.27;;;2.97;;
36185;SDS011;22228;53.222;7.446;2023-02-28T13:16:07;4.40;;;4.00;;
36185;SDS011;22228;53.222;7.446;2023-02-28T13:18:29;3.67;;;3.20;;
36185;SDS011;22228;53.222;7.446;2023-02-28T13:20:53;4.30;;;3.50;;
36185;SDS011;22228;53.222;7.446;2023-02-28T13:25:59;3.80;;;3.50;;
36185;SDS011;22228;53.222;7.446;2023-02-28T13:31:18;3.13;;;2.93;;
36185;SDS011;22228;53.222;7.446;2023-02-28T13:34:04;5.10;;;4.00;;
36185;SDS011;22228;53.222;7.446;2023-02-28T13:36:27;3.97;;;3.43;;
36185;SDS011;22228;53.222;7.446;2023-02-28T13:38:50;4.27;;;3.23;;
36185;SDS011;22228;53.222;7.446;2023-02-28T13:44:04;3.77;;;3.30;;
36185;SDS011;22228;53.222;7.446;2023-02-28T13:46:25;7.17;;;3.97;;
36185;SDS011;22228;53.222;7.446;2023-02-28T13:48:46;4.03;;;3.50;;
36185;SDS011;22228;53.222;7.446;2023-02-28T13:54:00;4.77;;;3.90;;
36185;SDS011;22228;53.222;7.446;2023-02-28T13:56:30;3.60;;;3.20;;
36185;SDS011;22228;53.222;7.446;2023-02-28T13:59:04;3.83;;;3.23;;
36185;SDS011;22228;53.222;7.446;2023-02-28T14:01:37;3.93;;;3.63;;
36185;SDS011;22228;53.222;7.446;2023-02-28T14:04:13;4.97;;;4.03;;
36185;SDS011;22228;53.222;7.446;2023-02-28T14:07:02;4.07;;;3.50;;
36185;SDS011;22228;53.222;7.446;2023-02-28T14:09:24;3.77;;;3.47;;
36185;SDS011;22228;53.222;7.446;2023-02-28T14:11:47;3.57;;;3.27;;
36185;SDS011;22228;53.222;7.446;2023-02-28T14:14:08;4.07;;;3.30;;
36185;SDS011;22228;53.222;7.446;2023-02-28T14:16:49;3.40;;;3.20;;
36185;SDS011;22228;53.222;7.446;2023-02-28T14:19:11;3.93;;;3.53;;
36185;SDS011;22228;53.222;7.446;2023-02-28T14:21:34;3.37;;;3.07;;
36185;SDS011;22228;53.222;7.446;2023-02-28T14:27:24;3.70;;;3.20;;
36185;SDS011;22228;53.222;7.446;2023-02-28T14:30:15;4.33;;;4.00;;
36185;SDS011;22228;53.222;7.446;2023-02-28T14:33:00;3.87;;;3.50;;
36185;SDS011;22228;53.222;7.446;2023-02-28T14:35:39;5.23;;;4.00;;
36185;SDS011;22228;53.222;7.446;2023-02-28T14:38:13;4.17;;;3.80;;
36185;SDS011;22228;53.222;7.446;2023-02-28T14:40:37;3.47;;;2.90;;
36185;SDS011;22228;53.222;7.446;2023-02-28T14:43:01;3.80;;;3.40;;
36185;SDS011;22228;53.222;7.446;2023-02-28T14:45:22;3.60;;;3.30;;
36185;SDS011;22228;53.222;7.446;2023-02-28T14:47:43;4.83;;;3.50;;
36185;SDS011;22228;53.222;7.446;2023-02-28T14:50:04;3.47;;;3.27;;
36185;SDS011;22228;53.222;7.446;2023-02-28T14:52:26;4.83;;;3.73;;
36185;SDS011;22228;53.222;7.446;2023-02-28T14:54:51;4.00;;;2.80;;
36185;SDS011;22228;53.222;7.446;2023-02-28T14:57:23;33.77;;;16.93;;
36185;SDS011;22228;53.222;7.446;2023-02-28T14:59:46;4.37;;;3.53;;
36185;SDS011;22228;53.222;7.446;2023-02-28T15:02:16;3.37;;;2.97;;
36185;SDS011;22228;53.222;7.446;2023-02-28T15:04:41;5.13;;;3.10;;
36185;SDS011;22228;53.222;7.446;2023-02-28T15:07:08;4.10;;;2.83;;
36185;SDS011;22228;53.222;7.446;2023-02-28T15:09:29;4.65;;;3.60;;
36185;SDS011;22228;53.222;7.446;2023-02-28T15:11:50;4.50;;;3.57;;
36185;SDS011;22228;53.222;7.446;2023-02-28T15:14:13;7.23;;;3.93;;
36185;SDS011;22228;53.222;7.446;2023-02-28T15:16:39;5.97;;;3.97;;
36185;SDS011;22228;53.222;7.446;2023-02-28T15:19:02;5.03;;;3.93;;
36185;SDS011;22228;53.222;7.446;2023-02-28T15:21:26;6.30;;;4.20;;
36185;SDS011;22228;53.222;7.446;2023-02-28T15:23:50;5.20;;;4.33;;
36185;SDS011;22228;53.222;7.446;2023-02-28T15:26:14;4.90;;;4.50;;
36185;SDS011;22228;53.222;7.446;2023-02-28T15:28:36;4.70;;;4.30;;
36185;SDS011;22228;53.222;7.446;2023-02-28T15:30:58;4.53;;;4.17;;
36185;SDS011;22228;53.222;7.446;2023-02-28T15:33:21;4.80;;;4.40;;
36185;SDS011;22228;53.222;7.446;2023-02-28T15:35:43;5.37;;;4.93;;
36185;SDS011;22228;53.222;7.446;2023-02-28T15:38:08;4.60;;;3.33;;
36185;SDS011;22228;53.222;7.446;2023-02-28T15:40:36;3.00;;;2.50;;
36185;SDS011;22228;53.222;7.446;2023-02-28T15:42:58;3.17;;;2.83;;
36185;SDS011;22228;53.222;7.446;2023-02-28T15:45:31;2.90;;;2.70;;
36185;SDS011;22228;53.222;7.446;2023-02-28T15:47:56;3.00;;;2.80;;
36185;SDS011;22228;53.222;7.446;2023-02-28T15:50:19;2.33;;;2.23;;
36185;SDS011;22228;53.222;7.446;2023-02-28T15:52:40;2.10;;;2.00;;
36185;SDS011;22228;53.222;7.446;2023-02-28T15:55:07;2.97;;;2.40;;
36185;SDS011;22228;53.222;7.446;2023-02-28T15:57:31;12.50;;;8.50;;
36185;SDS011;22228;53.222;7.446;2023-02-28T15:59:52;15.93;;;11.97;;
36185;SDS011;22228;53.222;7.446;2023-02-28T16:02:15;3.30;;;3.00;;
36185;SDS011;22228;53.222;7.446;2023-02-28T16:04:53;3.60;;;2.90;;
36185;SDS011;22228;53.222;7.446;2023-02-28T16:07:17;3.57;;;2.47;;
36185;SDS011;22228;53.222;7.446;2023-02-28T16:09:37;5.07;;;2.43;;
36185;SDS011;22228;53.222;7.446;2023-02-28T16:11:59;4.60;;;2.57;;
36185;SDS011;22228;53.222;7.446;2023-02-28T16:14:21;2.40;;;1.83;;
36185;SDS011;22228;53.222;7.446;2023-02-28T16:16:46;2.33;;;2.10;;
36185;SDS011;22228;53.222;7.446;2023-02-28T16:19:09;5.67;;;2.30;;
36185;SDS011;22228;53.222;7.446;2023-02-28T16:21:29;3.23;;;2.93;;
36185;SDS011;22228;53.222;7.446;2023-02-28T16:23:51;3.33;;;2.67;;
36185;SDS011;22228;53.222;7.446;2023-02-28T16:26:16;3.63;;;2.90;;
36185;SDS011;22228;53.222;7.446;2023-02-28T16:28:40;2.50;;;2.30;;
36185;SDS011;22228;53.222;7.446;2023-02-28T16:31:01;2.90;;;2.57;;
36185;SDS011;22228;53.222;7.446;2023-02-28T16:33:23;2.53;;;2.33;;
36185;SDS011;22228;53.222;7.446;2023-02-28T16:35:44;3.13;;;2.93;;
36185;SDS011;22228;53.222;7.446;2023-02-28T16:38:04;2.80;;;2.60;;
36185;SDS011;22228;53.222;7.446;2023-02-28T16:40:26;3.40;;;3.07;;
36185;SDS011;22228;53.222;7.446;2023-02-28T16:42:48;3.40;;;3.10;;
36185;SDS011;22228;53.222;7.446;2023-02-28T16:45:16;4.87;;;3.53;;
36185;SDS011;22228;53.222;7.446;2023-02-28T16:47:37;3.37;;;3.03;;
36185;SDS011;22228;53.222;7.446;2023-02-28T16:49:58;3.73;;;3.43;;
36185;SDS011;22228;53.222;7.446;2023-02-28T16:52:18;4.73;;;3.80;;
36185;SDS011;22228;53.222;7.446;2023-02-28T16:54:39;3.77;;;3.43;;
36185;SDS011;22228;53.222;7.446;2023-02-28T16:57:02;5.53;;;4.10;;
36185;SDS011;22228;53.222;7.446;2023-02-28T16:59:23;5.37;;;4.07;;
36185;SDS011;22228;53.222;7.446;2023-02-28T17:01:46;3.83;;;3.53;;
36185;SDS011;22228;53.222;7.446;2023-02-28T17:04:08;4.30;;;3.87;;
36185;SDS011;22228;53.222;7.446;2023-02-28T17:06:29;4.70;;;3.80;;
36185;SDS011;22228;53.222;7.446;2023-02-28T17:08:50;4.13;;;3.83;;
36185;SDS011;22228;53.222;7.446;2023-02-28T17:11:10;4.17;;;3.87;;
36185;SDS011;22228;53.222;7.446;2023-02-28T17:13:32;6.00;;;4.57;;
36185;SDS011;22228;53.222;7.446;2023-02-28T17:15:53;4.93;;;4.53;;
36185;SDS011;22228;53.222;7.446;2023-02-28T17:18:14;7.73;;;4.83;;
36185;SDS011;22228;53.222;7.446;2023-02-28T17:20:38;4.17;;;3.77;;
36185;SDS011;22228;53.222;7.446;2023-02-28T17:23:00;4.40;;;3.90;;